createdAt,value
2022-09-13T00:01:11.867Z,21.03
2022-09-13T00:03:38.805Z,21.07
2022-09-13T00:06:17.764Z,20.91
2022-09-13T00:08:45.381Z,20.70
2022-09-13T00:11:18.799Z,21.08
2022-09-13T00:13:46.043Z,20.63
2022-09-13T00:16:17.860Z,20.74
2022-09-13T00:18:45.022Z,20.91
2022-09-13T00:21:17.058Z,21.07
2022-09-13T00:23:45.659Z,21.12
2022-09-13T00:26:15.112Z,20.87
2022-09-13T00:28:42.690Z,20.77
2022-09-13T00:31:09.940Z,21.11
2022-09-13T00:33:37.198Z,21.33
2022-09-13T00:36:09.170Z,20.78
2022-09-13T00:38:37.175Z,20.91
2022-09-13T00:41:05.880Z,21.14
2022-09-13T00:43:45.581Z,21.30
2022-09-13T00:46:24.399Z,21.55
2022-09-13T00:48:55.423Z,21.14
2022-09-13T00:51:22.601Z,20.88
2022-09-13T00:53:55.380Z,21.09
2022-09-13T00:56:29.906Z,21.23
2022-09-13T00:59:13.572Z,20.94
2022-09-13T01:01:52.287Z,21.48
2022-09-13T01:04:22.825Z,21.37
2022-09-13T01:06:52.014Z,21.47
2022-09-13T01:09:18.823Z,21.41
2022-09-13T01:12:03.798Z,21.23
2022-09-13T01:14:33.159Z,21.56
2022-09-13T01:17:00.609Z,21.38
2022-09-13T01:19:27.763Z,21.27
2022-09-13T01:21:54.492Z,21.28
2022-09-13T01:24:41.507Z,21.34
2022-09-13T01:27:45.009Z,20.43
2022-09-13T01:30:47.597Z,21.41
2022-09-13T01:33:32.640Z,20.98
2022-09-13T01:36:24.137Z,20.51
2022-09-13T01:39:04.575Z,20.64
2022-09-13T01:42:27.064Z,21.05
2022-09-13T01:44:56.685Z,21.18
2022-09-13T01:47:41.714Z,21.09
2022-09-13T01:50:23.424Z,20.75
2022-09-13T01:52:57.028Z,20.91
2022-09-13T01:55:32.915Z,20.83
2022-09-13T01:58:18.192Z,20.65
2022-09-13T02:00:56.863Z,20.91
2022-09-13T02:03:37.096Z,20.78
2022-09-13T02:06:20.177Z,20.61
2022-09-13T02:08:53.250Z,21.00
2022-09-13T02:11:22.530Z,21.04
2022-09-13T02:14:09.047Z,20.70
2022-09-13T02:16:58.671Z,20.81
2022-09-13T02:19:52.991Z,21.04
2022-09-13T02:22:25.543Z,20.74
2022-09-13T02:24:57.763Z,20.89
2022-09-13T02:27:27.635Z,20.22
2022-09-13T02:30:01.272Z,20.27
2022-09-13T02:32:37.251Z,20.67
2022-09-13T02:35:14.170Z,20.38
2022-09-13T02:37:45.187Z,20.58
2022-09-13T02:40:22.157Z,20.51
2022-09-13T02:42:59.308Z,20.93
2022-09-13T02:45:34.569Z,20.65
2022-09-13T02:48:10.359Z,20.50
2022-09-13T02:50:59.568Z,20.13
2022-09-13T02:53:29.328Z,20.21
2022-09-13T02:56:14.648Z,19.55
2022-09-13T02:58:55.202Z,20.17
2022-09-13T03:01:22.314Z,19.87
2022-09-13T03:03:49.358Z,19.85
2022-09-13T03:06:29.420Z,19.77
2022-09-13T03:09:00.554Z,19.53
2022-09-13T03:11:55.159Z,20.12
2022-09-13T03:14:36.938Z,19.85
2022-09-13T03:17:34.689Z,20.60
2022-09-13T03:20:23.067Z,20.39
2022-09-13T03:22:52.611Z,20.28
2022-09-13T03:25:54.241Z,20.40
2022-09-13T03:28:29.937Z,20.56
2022-09-13T03:31:11.309Z,20.52
2022-09-13T03:33:45.130Z,19.89
2022-09-13T03:36:38.184Z,20.70
2022-09-13T03:39:26.770Z,19.89
2022-09-13T03:42:00.110Z,19.69
2022-09-13T03:44:29.979Z,20.30
2022-09-13T03:47:01.310Z,20.52
2022-09-13T03:49:30.901Z,20.58
2022-09-13T03:51:58.442Z,20.26
2022-09-13T03:54:29.896Z,20.71
2022-09-13T03:57:13.626Z,20.84
2022-09-13T03:59:58.695Z,20.53
2022-09-13T04:02:27.008Z,20.01
2022-09-13T04:04:53.894Z,20.03
2022-09-13T04:07:24.942Z,20.55
2022-09-13T04:09:53.107Z,20.69
2022-09-13T04:12:20.302Z,20.30
2022-09-13T04:14:48.203Z,20.35
2022-09-13T04:17:15.632Z,20.16
2022-09-13T04:19:44.719Z,20.37
2022-09-13T04:22:11.719Z,20.33
2022-09-13T04:24:39.849Z,20.36
2022-09-13T04:27:07.241Z,20.24
2022-09-13T04:29:33.965Z,20.18
2022-09-13T04:32:01.337Z,19.84
2022-09-13T04:34:28.105Z,19.96
2022-09-13T04:36:55.451Z,20.22
2022-09-13T04:39:23.828Z,19.91
2022-09-13T04:41:52.046Z,20.13
2022-09-13T04:44:19.099Z,20.12
2022-09-13T04:46:49.434Z,20.29
2022-09-13T04:49:20.115Z,20.39
2022-09-13T04:51:47.667Z,19.96
2022-09-13T04:54:16.196Z,20.28
2022-09-13T04:56:44.737Z,19.97
2022-09-13T04:59:12.347Z,20.27
2022-09-13T05:01:39.817Z,20.14
2022-09-13T05:04:07.863Z,20.25
2022-09-13T05:06:34.997Z,20.34
2022-09-13T05:09:02.365Z,20.03
2022-09-13T05:11:29.922Z,20.39
2022-09-13T05:13:58.987Z,20.18
2022-09-13T05:16:31.298Z,20.26
2022-09-13T05:18:59.043Z,20.56
2022-09-13T05:21:27.846Z,21.03
2022-09-13T05:23:56.309Z,20.92
2022-09-13T05:26:26.097Z,20.75
2022-09-13T05:28:53.624Z,21.25
2022-09-13T05:31:28.183Z,21.11
2022-09-13T05:34:01.673Z,21.25
2022-09-13T05:36:29.152Z,21.33
2022-09-13T05:39:18.762Z,21.60
2022-09-13T05:41:43.787Z,21.63
2022-09-13T05:44:13.562Z,21.88
2022-09-13T05:46:42.292Z,21.79
2022-09-13T05:49:09.116Z,21.51
2022-09-13T05:51:36.428Z,21.78
2022-09-13T05:54:03.549Z,21.77
2022-09-13T05:56:31.004Z,21.69
2022-09-13T05:59:01.544Z,21.47
2022-09-13T06:01:29.484Z,22.05
2022-09-13T06:03:59.285Z,21.51
2022-09-13T06:06:26.586Z,21.51
2022-09-13T06:08:54.771Z,21.48
2022-09-13T06:11:22.428Z,21.80
2022-09-13T06:13:49.177Z,21.87
2022-09-13T06:16:17.379Z,21.44
2022-09-13T06:18:45.286Z,21.83
2022-09-13T06:21:18.381Z,22.01
2022-09-13T06:23:51.204Z,22.12
2022-09-13T06:26:20.206Z,21.56
2022-09-13T06:28:49.119Z,21.64
2022-09-13T06:31:18.278Z,21.89
2022-09-13T06:33:45.333Z,21.83
2022-09-13T06:36:20.292Z,21.71
2022-09-13T06:38:49.022Z,22.08
2022-09-13T06:41:20.518Z,21.69
2022-09-13T06:43:48.267Z,21.69
2022-09-13T06:46:20.448Z,21.23
2022-09-13T06:48:51.084Z,21.01
2022-09-13T06:51:20.379Z,21.06
2022-09-13T06:53:48.668Z,21.54
2022-09-13T06:56:18.917Z,21.51
2022-09-13T06:58:47.231Z,21.83
2022-09-13T07:01:23.187Z,22.14
2022-09-13T07:03:53.075Z,22.17
2022-09-13T07:06:24.955Z,22.46
2022-09-13T07:08:52.285Z,22.15
2022-09-13T07:11:22.607Z,22.57
2022-09-13T07:13:51.303Z,22.10
2022-09-13T07:16:19.512Z,22.22
2022-09-13T07:18:57.887Z,22.52
2022-09-13T07:21:26.170Z,22.64
2022-09-13T07:23:55.259Z,22.97
2022-09-13T07:26:22.792Z,22.48
2022-09-13T07:28:52.402Z,22.97
2022-09-13T07:31:29.831Z,22.82
2022-09-13T07:33:59.337Z,22.66
2022-09-13T07:36:27.518Z,22.99
2022-09-13T07:38:54.580Z,22.99
2022-09-13T07:41:23.469Z,23.58
2022-09-13T07:43:51.877Z,23.76
2022-09-13T07:46:21.366Z,23.71
2022-09-13T07:48:49.799Z,23.67
2022-09-13T07:51:22.874Z,23.64
2022-09-13T07:53:56.957Z,23.42
2022-09-13T07:56:51.720Z,23.83
2022-09-13T07:59:19.633Z,23.97
2022-09-13T08:01:51.215Z,24.12
2022-09-13T08:04:21.591Z,23.99
2022-09-13T08:06:49.022Z,23.88
2022-09-13T08:09:16.309Z,23.72
2022-09-13T08:11:48.852Z,23.88
2022-09-13T08:14:18.211Z,24.49
2022-09-13T08:16:45.090Z,23.45
2022-09-13T08:19:18.745Z,23.80
2022-09-13T08:21:47.027Z,23.98
2022-09-13T08:24:16.794Z,23.97
2022-09-13T08:26:44.424Z,24.01
2022-09-13T08:29:12.517Z,24.16
2022-09-13T08:31:39.305Z,24.28
2022-09-13T08:34:11.532Z,24.53
2022-09-13T08:36:38.432Z,24.05
2022-09-13T08:39:05.117Z,24.27
2022-09-13T08:41:52.308Z,24.69
2022-09-13T08:44:35.998Z,24.57
2022-09-13T08:47:24.874Z,25.45
2022-09-13T08:50:06.801Z,24.03
2022-09-13T08:52:39.397Z,23.69
2022-09-13T08:55:47.851Z,24.54
2022-09-13T08:58:38.989Z,24.73
2022-09-13T09:01:27.786Z,24.31
2022-09-13T09:04:06.756Z,24.61
2022-09-13T09:06:35.412Z,24.06
2022-09-13T09:09:10.571Z,24.46
2022-09-13T09:12:00.118Z,24.95
2022-09-13T09:14:32.715Z,24.60
2022-09-13T09:17:06.542Z,24.82
2022-09-13T09:19:38.164Z,25.04
2022-09-13T09:22:13.299Z,25.49
2022-09-13T09:24:44.237Z,26.22
2022-09-13T09:27:16.361Z,25.97
2022-09-13T09:29:44.673Z,26.60
2022-09-13T09:32:31.368Z,26.86
2022-09-13T09:35:20.175Z,26.68
2022-09-13T09:38:02.846Z,25.91
2022-09-13T09:40:31.773Z,25.29
2022-09-13T09:42:58.688Z,25.39
2022-09-13T09:45:33.516Z,25.08
2022-09-13T09:48:09.380Z,24.55
2022-09-13T09:50:49.463Z,25.01
2022-09-13T09:53:19.231Z,25.27
2022-09-13T09:56:15.114Z,25.61
2022-09-13T09:58:44.565Z,25.42
2022-09-13T10:01:26.575Z,24.80
2022-09-13T10:04:19.885Z,25.34
2022-09-13T10:06:47.162Z,25.16
2022-09-13T10:09:13.837Z,25.04
2022-09-13T10:11:50.349Z,25.38
2022-09-13T10:14:35.361Z,25.13
2022-09-13T10:17:12.755Z,25.31
2022-09-13T10:19:39.667Z,24.85
2022-09-13T10:22:11.681Z,25.55
2022-09-13T10:24:39.382Z,26.28
2022-09-13T10:27:39.337Z,26.22
2022-09-13T10:30:28.932Z,26.49
2022-09-13T10:32:57.658Z,25.70
2022-09-13T10:35:25.044Z,26.39
2022-09-13T10:37:52.265Z,26.49
2022-09-13T10:40:38.350Z,26.24
2022-09-13T10:43:16.153Z,26.20
2022-09-13T10:45:43.184Z,26.13
2022-09-13T10:48:16.622Z,26.11
2022-09-13T10:51:04.635Z,26.11
2022-09-13T10:53:41.042Z,26.09
2022-09-13T10:56:21.470Z,25.56
2022-09-13T10:58:48.497Z,25.88
2022-09-13T11:01:20.824Z,26.38
2022-09-13T11:03:56.814Z,26.28
2022-09-13T11:06:49.004Z,26.16
2022-09-13T11:09:51.251Z,26.08
2022-09-13T11:13:00.327Z,26.75
2022-09-13T11:15:53.332Z,26.93
2022-09-13T11:18:22.993Z,26.66
2022-09-13T11:21:14.530Z,26.80
2022-09-13T11:23:59.662Z,27.02
2022-09-13T11:26:35.038Z,27.45
2022-09-13T11:29:10.970Z,26.36
2022-09-13T11:31:46.483Z,26.05
2022-09-13T11:34:51.802Z,26.86
2022-09-13T11:37:45.804Z,27.47
2022-09-13T11:40:49.906Z,27.61
2022-09-13T11:43:58.684Z,27.61
2022-09-13T11:46:49.017Z,27.15
2022-09-13T11:49:35.460Z,27.60
2022-09-13T11:52:44.117Z,27.48
2022-09-13T11:55:36.559Z,27.21
2022-09-13T11:58:09.912Z,27.44
2022-09-13T12:00:44.026Z,26.74
2022-09-13T12:03:11.274Z,26.95
2022-09-13T12:05:46.250Z,26.87
2022-09-13T12:08:20.043Z,26.86
2022-09-13T12:10:56.934Z,27.31
2022-09-13T12:13:35.354Z,27.69
2022-09-13T12:16:09.860Z,27.44
2022-09-13T12:18:44.599Z,27.23
2022-09-13T12:21:15.004Z,27.79
2022-09-13T12:24:02.451Z,28.48
2022-09-13T12:26:52.489Z,28.25
2022-09-13T12:29:28.283Z,28.36
2022-09-13T12:32:00.432Z,28.45
2022-09-13T12:34:42.994Z,28.20
2022-09-13T12:37:38.774Z,28.22
2022-09-13T12:40:24.143Z,28.01
2022-09-13T12:43:11.202Z,27.51
2022-09-13T12:45:58.480Z,27.95
2022-09-13T12:48:53.239Z,27.85
2022-09-13T12:51:27.899Z,27.25
2022-09-13T12:54:16.500Z,27.62
2022-09-13T12:57:10.359Z,28.79
2022-09-13T12:59:59.084Z,28.77
2022-09-13T13:02:32.569Z,28.93
2022-09-13T13:05:27.665Z,29.17
2022-09-13T13:08:17.786Z,29.61
2022-09-13T13:10:45.340Z,29.36
2022-09-13T13:13:31.861Z,29.32
2022-09-13T13:16:02.594Z,28.45
2022-09-13T13:18:48.540Z,28.50
2022-09-13T13:21:39.157Z,28.20
2022-09-13T13:24:21.193Z,29.20
2022-09-13T13:26:53.964Z,28.62
2022-09-13T13:29:23.707Z,29.62
2022-09-13T13:32:07.642Z,29.08
2022-09-13T13:34:38.227Z,28.39
2022-09-13T13:37:06.469Z,28.09
2022-09-13T13:39:36.191Z,27.79
2022-09-13T13:42:13.606Z,28.46
2022-09-13T13:44:43.682Z,27.95
2022-09-13T13:47:16.372Z,28.01
2022-09-13T13:49:50.119Z,28.59
2022-09-13T13:52:18.971Z,28.52
2022-09-13T13:54:59.936Z,29.32
2022-09-13T13:57:44.633Z,29.36
2022-09-13T14:00:16.885Z,29.43
2022-09-13T14:02:56.915Z,29.25
2022-09-13T14:05:38.840Z,30.21
2022-09-13T14:08:30.182Z,29.87
2022-09-13T14:10:59.963Z,30.25
2022-09-13T14:13:38.992Z,29.89
2022-09-13T14:16:27.351Z,28.89
2022-09-13T14:19:23.899Z,29.61
2022-09-13T14:22:15.808Z,28.87
2022-09-13T14:24:46.508Z,29.35
2022-09-13T14:27:17.046Z,28.70
2022-09-13T14:29:53.071Z,28.52
2022-09-13T14:32:24.392Z,29.29
2022-09-13T14:34:58.381Z,28.28
2022-09-13T14:37:31.400Z,28.96
2022-09-13T14:40:11.396Z,28.61
2022-09-13T14:42:44.742Z,29.96
2022-09-13T14:45:36.774Z,29.22
2022-09-13T14:48:12.768Z,30.33
2022-09-13T14:50:47.038Z,30.13
2022-09-13T14:53:18.629Z,30.22
2022-09-13T14:55:52.718Z,29.74
2022-09-13T14:58:30.626Z,29.25
2022-09-13T15:01:02.276Z,29.23
2022-09-13T15:03:29.768Z,29.37
2022-09-13T15:05:58.804Z,29.60
2022-09-13T15:08:37.494Z,29.96
2022-09-13T15:11:07.294Z,29.39
2022-09-13T15:13:35.095Z,29.07
2022-09-13T15:16:02.815Z,29.30
2022-09-13T15:18:36.944Z,28.74
2022-09-13T15:21:18.083Z,28.48
2022-09-13T15:23:54.145Z,27.89
2022-09-13T15:26:25.472Z,28.37
2022-09-13T15:28:59.196Z,28.54
2022-09-13T15:31:28.718Z,27.69
2022-09-13T15:34:17.647Z,27.20
2022-09-13T15:37:12.275Z,27.24
2022-09-13T15:39:49.838Z,27.02
2022-09-13T15:42:17.605Z,26.92
2022-09-13T15:44:44.646Z,26.42
2022-09-13T15:47:19.167Z,26.72
2022-09-13T15:49:51.114Z,27.11
2022-09-13T15:52:19.659Z,27.19
2022-09-13T15:54:51.005Z,26.72
2022-09-13T15:57:23.394Z,26.09
2022-09-13T15:59:50.954Z,26.47
2022-09-13T16:02:24.000Z,26.78
2022-09-13T16:04:52.485Z,26.46
2022-09-13T16:07:20.199Z,26.27
2022-09-13T16:09:48.292Z,26.53
2022-09-13T16:12:15.232Z,26.69
2022-09-13T16:14:42.922Z,26.69
2022-09-13T16:17:19.368Z,26.76
2022-09-13T16:19:46.635Z,26.68
2022-09-13T16:22:13.585Z,26.51
2022-09-13T16:24:40.516Z,26.22
2022-09-13T16:27:07.552Z,26.42
2022-09-13T16:29:34.347Z,25.76
2022-09-13T16:32:01.850Z,26.08
2022-09-13T16:34:28.729Z,26.08
2022-09-13T16:36:55.413Z,26.09
2022-09-13T16:39:22.496Z,25.52
2022-09-13T16:41:49.213Z,25.02
2022-09-13T16:44:16.408Z,25.16
2022-09-13T16:46:43.289Z,25.21
2022-09-13T16:49:10.406Z,24.55
2022-09-13T16:51:37.905Z,25.21
2022-09-13T16:54:06.332Z,25.62
2022-09-13T16:56:33.285Z,25.18
2022-09-13T16:59:01.016Z,25.61
2022-09-13T17:01:29.920Z,25.14
2022-09-13T17:03:57.517Z,25.15
2022-09-13T17:06:26.240Z,24.85
2022-09-13T17:09:01.194Z,25.32
2022-09-13T17:11:31.310Z,25.38
2022-09-13T17:13:59.050Z,24.84
2022-09-13T17:16:45.081Z,25.38
2022-09-13T17:19:17.313Z,24.45
2022-09-13T17:21:44.343Z,24.31
2022-09-13T17:24:13.610Z,24.82
2022-09-13T17:26:44.506Z,24.86
2022-09-13T17:29:30.993Z,24.73
2022-09-13T17:31:59.867Z,24.39
2022-09-13T17:34:26.971Z,24.84
2022-09-13T17:36:54.679Z,24.72
2022-09-13T17:39:21.749Z,25.03
2022-09-13T17:41:48.816Z,24.95
2022-09-13T17:44:16.334Z,25.28
2022-09-13T17:46:43.317Z,24.65
2022-09-13T17:49:10.250Z,24.80
2022-09-13T17:51:37.135Z,25.29
2022-09-13T17:54:06.636Z,24.95
2022-09-13T17:56:36.294Z,25.05
2022-09-13T17:59:23.209Z,24.99
2022-09-13T18:01:53.008Z,25.15
2022-09-13T18:04:22.608Z,25.07
2022-09-13T18:06:51.456Z,25.19
2022-09-13T18:09:18.511Z,24.73
2022-09-13T18:11:45.403Z,24.75
2022-09-13T18:14:16.630Z,24.88
2022-09-13T18:16:44.443Z,24.91
2022-09-13T18:19:12.153Z,24.67
2022-09-13T18:21:39.246Z,24.80
2022-09-13T18:24:06.962Z,25.06
2022-09-13T18:26:34.650Z,24.94
2022-09-13T18:29:03.906Z,24.73
2022-09-13T18:31:33.584Z,24.76
2022-09-13T18:34:09.934Z,25.07
2022-09-13T18:36:37.624Z,24.58
2022-09-13T18:39:07.275Z,24.26
2022-09-13T18:41:42.179Z,24.93
2022-09-13T18:44:13.344Z,25.19
2022-09-13T18:46:40.570Z,25.18
2022-09-13T18:49:07.707Z,25.26
2022-09-13T18:51:40.270Z,24.93
2022-09-13T18:54:09.175Z,25.03
2022-09-13T18:56:36.090Z,24.72
2022-09-13T18:59:05.528Z,24.73
2022-09-13T19:01:37.875Z,24.63
2022-09-13T19:04:07.915Z,25.05
2022-09-13T19:06:40.287Z,24.75
2022-09-13T19:09:08.381Z,24.98
2022-09-13T19:11:49.235Z,24.97
2022-09-13T19:14:21.639Z,24.95
2022-09-13T19:16:49.012Z,24.90
2022-09-13T19:19:15.894Z,24.80
2022-09-13T19:21:43.413Z,24.93
2022-09-13T19:24:17.574Z,24.89
2022-09-13T19:26:47.130Z,24.97
2022-09-13T19:29:17.779Z,24.79
2022-09-13T19:31:49.549Z,24.74
2022-09-13T19:34:18.782Z,24.65
2022-09-13T19:36:45.590Z,24.85
2022-09-13T19:39:12.758Z,24.87
2022-09-13T19:41:40.486Z,24.71
2022-09-13T19:44:08.610Z,24.74
2022-09-13T19:46:38.335Z,24.58
2022-09-13T19:49:08.296Z,24.44
2022-09-13T19:51:37.684Z,24.45
2022-09-13T19:54:05.725Z,24.26
2022-09-13T19:56:34.958Z,24.13
2022-09-13T19:59:02.431Z,24.57
2022-09-13T20:01:32.651Z,24.67
2022-09-13T20:04:05.568Z,24.45
2022-09-13T20:06:37.808Z,24.50
2022-09-13T20:09:05.026Z,24.38
2022-09-13T20:11:33.156Z,23.85
2022-09-13T20:14:01.071Z,24.02
2022-09-13T20:16:30.153Z,23.90
2022-09-13T20:18:57.520Z,23.55
2022-09-13T20:21:25.645Z,23.67
2022-09-13T20:23:59.070Z,23.43
2022-09-13T20:26:27.184Z,23.51
2022-09-13T20:29:06.145Z,23.20
2022-09-13T20:31:36.520Z,23.20
2022-09-13T20:34:06.996Z,23.14
2022-09-13T20:36:36.108Z,23.28
2022-09-13T20:39:04.061Z,23.40
2022-09-13T20:41:31.639Z,23.38
2022-09-13T20:43:59.870Z,23.28
2022-09-13T20:46:27.275Z,23.09
2022-09-13T20:48:54.173Z,23.05
2022-09-13T20:51:22.605Z,23.45
2022-09-13T20:53:58.033Z,23.47
2022-09-13T20:56:24.879Z,23.21
2022-09-13T20:59:00.086Z,22.97
2022-09-13T21:01:29.739Z,22.93
2022-09-13T21:03:57.482Z,22.85
2022-09-13T21:06:27.166Z,23.11
2022-09-13T21:08:56.391Z,22.97
2022-09-13T21:11:34.000Z,22.73
2022-09-13T21:14:08.661Z,22.66
2022-09-13T21:16:39.063Z,22.74
2022-09-13T21:19:06.994Z,22.61
2022-09-13T21:21:36.901Z,22.65
2022-09-13T21:24:05.850Z,22.54
2022-09-13T21:26:33.152Z,22.56
2022-09-13T21:29:00.535Z,22.51
2022-09-13T21:31:30.572Z,22.74
2022-09-13T21:33:59.525Z,22.68
2022-09-13T21:36:28.179Z,22.75
2022-09-13T21:38:56.096Z,22.54
2022-09-13T21:41:25.106Z,22.17
2022-09-13T21:43:52.919Z,22.58
2022-09-13T21:46:22.189Z,22.58
2022-09-13T21:48:52.608Z,22.23
2022-09-13T21:51:24.974Z,22.32
2022-09-13T21:53:58.467Z,22.38
2022-09-13T21:56:28.161Z,22.18
2022-09-13T21:59:00.225Z,21.72
2022-09-13T22:01:29.901Z,21.77
2022-09-13T22:03:57.422Z,21.87
2022-09-13T22:06:26.735Z,21.33
2022-09-13T22:08:58.142Z,21.82
2022-09-13T22:11:27.334Z,20.68
2022-09-13T22:13:56.061Z,20.89
2022-09-13T22:16:28.846Z,20.99
2022-09-13T22:19:07.976Z,21.48
2022-09-13T22:21:38.079Z,21.66
2022-09-13T22:24:06.981Z,21.79
2022-09-13T22:26:36.521Z,21.70
2022-09-13T22:29:04.288Z,21.74
2022-09-13T22:31:32.989Z,21.21
2022-09-13T22:34:01.123Z,21.70
2022-09-13T22:36:28.831Z,21.51
2022-09-13T22:38:55.879Z,21.69
2022-09-13T22:41:25.691Z,21.47
2022-09-13T22:43:53.352Z,21.45
2022-09-13T22:46:22.933Z,21.62
2022-09-13T22:48:50.090Z,21.48
2022-09-13T22:51:18.667Z,21.20
2022-09-13T22:53:47.771Z,20.98
2022-09-13T22:56:20.265Z,20.81
2022-09-13T22:58:48.083Z,20.65
2022-09-13T23:01:20.181Z,20.42
2022-09-13T23:03:48.237Z,20.80
2022-09-13T23:06:18.994Z,20.59
2022-09-13T23:08:47.503Z,20.81
2022-09-13T23:11:23.667Z,20.82
2022-09-13T23:13:52.948Z,20.67
2022-09-13T23:16:25.243Z,20.63
2022-09-13T23:18:53.330Z,20.28
2022-09-13T23:21:22.193Z,19.61
2022-09-13T23:23:49.377Z,20.40
2022-09-13T23:26:19.289Z,20.65
2022-09-13T23:28:48.051Z,19.61
2022-09-13T23:31:18.437Z,20.09
2022-09-13T23:33:48.413Z,20.40
2022-09-13T23:36:22.775Z,20.17
2022-09-13T23:38:52.762Z,19.47
2022-09-13T23:41:20.609Z,19.97
2022-09-13T23:43:48.117Z,20.35
2022-09-13T23:46:15.249Z,19.62
2022-09-13T23:48:44.973Z,19.96
2022-09-13T23:51:14.567Z,20.15
2022-09-13T23:53:41.940Z,20.03
2022-09-13T23:56:09.267Z,19.77
2022-09-13T23:58:38.064Z,20.14
